Time;durP1;ratioP1;P1;durP2;ratioP2;P2;SDS_P1;SDS_P2;PMS_P1;PMS_P2;Temp;Humidity;BMP_temperature;BMP_pressure;BME280_temperature;BME280_humidity;BME280_pressure;Samples;Min_cycle;Max_cycle;Signal;HPM_P1;HPM_P2
2022/09/03 00:00:06;;;;;;;;;;;17.90;92.10;;;;;;4996846;28;20676;-64
2022/09/03 00:02:39;;;;;;;;;;;17.80;92.20;;;;;;5001150;28;20195;-64
2022/09/03 00:05:11;;;;;;;;;;;17.70;92.60;;;;;;4994431;28;20643;-65
2022/09/03 00:07:43;;;;;;;;;;;17.60;92.70;;;;;;4996834;28;20586;-63
2022/09/03 00:10:12;;;;;;;;;;;17.60;92.60;;;;;;4994299;28;20219;-64
2022/09/03 00:12:43;;;;;;;;;;;17.60;92.90;;;;;;4997381;28;20191;-64
2022/09/03 00:15:12;;;;;;;;;;;17.50;92.80;;;;;;4996115;28;20548;-64
2022/09/03 00:17:42;;;;;;;;;;;17.50;92.90;;;;;;5012201;28;20211;-64
2022/09/03 00:20:13;;;;;;;;;;;17.50;93.00;;;;;;4993997;28;20692;-64
2022/09/03 00:22:43;;;;;;;;;;;17.40;93.20;;;;;;4997194;28;20256;-66
2022/09/03 00:25:13;;;;;;;;;;;17.40;93.20;;;;;;4993814;28;20195;-65
2022/09/03 00:27:42;;;;;;;;;;;17.40;93.30;;;;;;4994538;28;20085;-64
2022/09/03 00:30:11;;;;;;;;;;;17.30;93.50;;;;;;4997063;28;20076;-63
2022/09/03 00:32:46;;;;;;;;;;;17.30;93.50;;;;;;4993112;28;20196;-63
2022/09/03 00:35:16;;;;;;;;;;;17.20;93.60;;;;;;4994292;28;20953;-63
2022/09/03 00:37:44;;;;;;;;;;;17.20;93.80;;;;;;5002519;28;20203;-64
2022/09/03 00:40:17;;;;;;;;;;;17.20;93.80;;;;;;4995842;28;20213;-63
2022/09/03 00:42:49;;;;;;;;;;;17.30;93.70;;;;;;4998480;28;20198;-64
2022/09/03 00:45:20;;;;;;;;;;;17.30;94.40;;;;;;5005583;28;20743;-65
2022/09/03 00:48:01;;;;;;;;;;;17.40;93.90;;;;;;5004244;28;20203;-64
2022/09/03 00:50:34;;;;;;;;;;;17.40;93.50;;;;;;4992893;28;21351;-65
2022/09/03 00:53:05;;;;;;;;;;;17.40;93.90;;;;;;5000113;28;20199;-64
2022/09/03 00:55:38;;;;;;;;;;;17.40;94.90;;;;;;4995576;28;20250;-64
2022/09/03 00:58:14;;;;;;;;;;;17.50;93.70;;;;;;5000739;28;20249;-63
2022/09/03 01:00:42;;;;;;;;;;;17.40;93.90;;;;;;5002965;28;20815;-66
2022/09/03 01:03:12;;;;;;;;;;;17.30;94.20;;;;;;5003619;28;20286;-65
2022/09/03 01:05:51;;;;;;;;;;;17.20;94.20;;;;;;4995074;28;20207;-64
2022/09/03 01:08:35;;;;;;;;;;;17.20;94.20;;;;;;4998691;28;20219;-64
2022/09/03 01:11:10;;;;;;;;;;;17.10;94.30;;;;;;4990661;28;20122;-63
2022/09/03 01:13:40;;;;;;;;;;;17.10;94.40;;;;;;4991112;28;20586;-63
2022/09/03 01:16:10;;;;;;;;;;;17.20;94.80;;;;;;4993044;28;20223;-63
2022/09/03 01:18:43;;;;;;;;;;;17.10;94.50;;;;;;4993473;28;20223;-63
2022/09/03 01:21:19;;;;;;;;;;;17.10;94.60;;;;;;4992437;28;20274;-64
2022/09/03 01:24:06;;;;;;;;;;;17.10;94.60;;;;;;5000852;28;20237;-63
2022/09/03 01:26:40;;;;;;;;;;;17.10;94.80;;;;;;4993338;28;20602;-63
2022/09/03 01:29:13;;;;;;;;;;;17.10;94.90;;;;;;4995777;28;20831;-63
2022/09/03 01:31:45;;;;;;;;;;;17.00;95.10;;;;;;4994313;28;20241;-64
2022/09/03 01:34:19;;;;;;;;;;;17.00;95.10;;;;;;4994056;28;20680;-63
2022/09/03 01:36:52;;;;;;;;;;;17.00;95.30;;;;;;4996011;28;20672;-64
2022/09/03 01:39:26;;;;;;;;;;;17.00;95.30;;;;;;4997003;28;20211;-64
2022/09/03 01:42:15;;;;;;;;;;;17.00;95.40;;;;;;4992019;28;20954;-63
2022/09/03 01:45:05;;;;;;;;;;;17.00;95.40;;;;;;4990081;28;20203;-64
2022/09/03 01:47:36;;;;;;;;;;;17.00;95.50;;;;;;4993996;28;20190;-63
2022/09/03 01:50:06;;;;;;;;;;;17.00;95.50;;;;;;4993275;28;20207;-62
2022/09/03 01:52:43;;;;;;;;;;;17.00;95.50;;;;;;4993572;28;20203;-63
2022/09/03 01:55:18;;;;;;;;;;;17.00;95.60;;;;;;4995392;28;20218;-62
2022/09/03 01:57:48;;;;;;;;;;;17.00;95.70;;;;;;4989620;28;20256;-62
2022/09/03 02:00:19;;;;;;;;;;;17.00;95.70;;;;;;4991281;28;20277;-63
2022/09/03 02:02:49;;;;;;;;;;;17.00;95.70;;;;;;4993595;28;20253;-62
2022/09/03 02:05:21;;;;;;;;;;;17.00;95.80;;;;;;4993101;28;20195;-63
2022/09/03 02:07:56;;;;;;;;;;;17.00;95.90;;;;;;4992702;28;20215;-62
2022/09/03 02:10:26;;;;;;;;;;;17.00;95.90;;;;;;4999569;28;20292;-64
2022/09/03 02:12:57;;;;;;;;;;;17.00;95.90;;;;;;4995682;28;20206;-64
2022/09/03 02:15:26;;;;;;;;;;;17.10;96.20;;;;;;4992774;28;20211;-63
2022/09/03 02:17:56;;;;;;;;;;;17.20;96.20;;;;;;4992494;28;20218;-62
2022/09/03 02:20:27;;;;;;;;;;;17.30;96.10;;;;;;4992629;28;20194;-63
2022/09/03 02:22:55;;;;;;;;;;;17.30;95.70;;;;;;4995113;28;20211;-64
2022/09/03 02:25:26;;;;;;;;;;;17.30;95.80;;;;;;4994034;28;20214;-63
2022/09/03 02:27:54;;;;;;;;;;;17.30;96.30;;;;;;4988538;28;20222;-63
2022/09/03 02:30:22;;;;;;;;;;;17.30;95.70;;;;;;4990813;28;20203;-63
2022/09/03 02:32:51;;;;;;;;;;;17.30;95.80;;;;;;4989670;28;20199;-63
2022/09/03 02:35:18;;;;;;;;;;;17.30;96.00;;;;;;4994316;28;20199;-63
2022/09/03 02:37:46;;;;;;;;;;;17.30;96.00;;;;;;4940132;28;1853428;-63
2022/09/03 02:40:14;;;;;;;;;;;17.30;96.10;;;;;;4995614;28;20484;-64
2022/09/03 02:42:42;;;;;;;;;;;17.30;96.10;;;;;;4996257;28;20225;-63
2022/09/03 02:45:16;;;;;;;;;;;17.30;96.00;;;;;;4990238;28;20203;-64
2022/09/03 02:47:44;;;;;;;;;;;17.40;95.90;;;;;;4993034;28;20237;-63
2022/09/03 02:50:13;;;;;;;;;;;17.40;96.00;;;;;;5007890;28;20200;-63
2022/09/03 02:52:41;;;;;;;;;;;17.40;96.00;;;;;;5009019;28;20206;-63
2022/09/03 02:55:09;;;;;;;;;;;17.40;96.00;;;;;;5004959;28;20258;-64
2022/09/03 02:57:37;;;;;;;;;;;17.40;96.00;;;;;;4998112;28;20206;-64
2022/09/03 03:00:05;;;;;;;;;;;17.40;96.10;;;;;;4995753;28;20217;-63
2022/09/03 03:02:33;;;;;;;;;;;17.40;96.20;;;;;;4999883;28;20210;-64
2022/09/03 03:05:01;;;;;;;;;;;17.40;96.20;;;;;;5000498;28;20213;-64
2022/09/03 03:07:32;;;;;;;;;;;17.40;96.20;;;;;;4996629;28;20261;-62
2022/09/03 03:10:00;;;;;;;;;;;17.40;96.20;;;;;;4996357;28;20195;-63
2022/09/03 03:12:28;;;;;;;;;;;17.40;96.40;;;;;;4999314;28;20203;-64
2022/09/03 03:14:56;;;;;;;;;;;17.40;96.40;;;;;;4993028;28;20285;-64
2022/09/03 03:17:25;;;;;;;;;;;17.40;96.40;;;;;;4995779;28;20269;-63
2022/09/03 03:19:52;;;;;;;;;;;17.40;96.40;;;;;;4998304;28;20191;-63
2022/09/03 03:22:20;;;;;;;;;;;17.40;96.50;;;;;;5000812;28;20198;-63
2022/09/03 03:24:51;;;;;;;;;;;17.40;96.60;;;;;;5002665;28;20195;-63
2022/09/03 03:27:19;;;;;;;;;;;17.40;96.60;;;;;;5008419;28;20263;-63
2022/09/03 03:29:47;;;;;;;;;;;17.40;96.70;;;;;;5008673;28;20234;-63
2022/09/03 03:32:14;;;;;;;;;;;17.40;96.70;;;;;;5008276;28;20210;-64
2022/09/03 03:34:42;;;;;;;;;;;17.40;96.90;;;;;;4991275;28;20233;-64
2022/09/03 03:37:10;;;;;;;;;;;17.30;96.90;;;;;;4996760;28;20668;-63
2022/09/03 03:39:38;;;;;;;;;;;17.30;97.00;;;;;;5014497;28;20214;-64
2022/09/03 03:42:07;;;;;;;;;;;17.30;97.10;;;;;;5007359;28;20258;-63
2022/09/03 03:44:35;;;;;;;;;;;17.40;97.20;;;;;;5009842;28;20198;-63
2022/09/03 03:47:04;;;;;;;;;;;17.40;97.30;;;;;;5004241;28;20264;-63
2022/09/03 03:49:32;;;;;;;;;;;17.40;97.00;;;;;;5007804;28;20548;-63
2022/09/03 03:52:01;;;;;;;;;;;17.40;97.10;;;;;;5010401;28;20609;-63
2022/09/03 03:54:29;;;;;;;;;;;17.40;97.00;;;;;;5004604;28;20191;-64
2022/09/03 03:56:57;;;;;;;;;;;17.30;97.20;;;;;;5005578;28;20660;-64
2022/09/03 03:59:26;;;;;;;;;;;17.30;97.30;;;;;;5002635;28;20218;-63
2022/09/03 04:01:54;;;;;;;;;;;17.30;97.40;;;;;;5004991;28;20246;-63
2022/09/03 04:04:22;;;;;;;;;;;17.30;97.50;;;;;;5005357;28;20203;-65
2022/09/03 04:06:50;;;;;;;;;;;17.30;97.40;;;;;;4993813;28;20253;-64
2022/09/03 04:09:17;;;;;;;;;;;17.30;97.60;;;;;;4998161;28;20299;-64
2022/09/03 04:11:45;;;;;;;;;;;17.20;97.70;;;;;;4995219;28;20727;-65
2022/09/03 04:14:13;;;;;;;;;;;17.20;97.80;;;;;;4998084;28;20786;-65
2022/09/03 04:16:45;;;;;;;;;;;17.20;97.90;;;;;;5002442;28;20257;-65
2022/09/03 04:19:13;;;;;;;;;;;17.10;97.90;;;;;;4999094;28;20207;-65
2022/09/03 04:21:41;;;;;;;;;;;17.10;98.10;;;;;;4996999;28;20207;-64
2022/09/03 04:24:09;;;;;;;;;;;17.10;98.20;;;;;;5000647;28;20684;-63
2022/09/03 04:26:36;;;;;;;;;;;17.10;98.20;;;;;;5001100;28;20192;-65
2022/09/03 04:29:05;;;;;;;;;;;17.10;98.40;;;;;;4998207;28;20235;-64
2022/09/03 04:31:34;;;;;;;;;;;17.00;98.40;;;;;;4999468;28;20256;-65
2022/09/03 04:34:05;;;;;;;;;;;17.00;98.50;;;;;;5001003;28;20199;-63
2022/09/03 04:36:33;;;;;;;;;;;17.00;98.60;;;;;;4998746;28;20283;-65
2022/09/03 04:39:01;;;;;;;;;;;16.90;98.70;;;;;;4997240;28;20211;-63
2022/09/03 04:41:30;;;;;;;;;;;16.90;98.90;;;;;;4996252;28;20204;-64
2022/09/03 04:43:59;;;;;;;;;;;16.90;98.90;;;;;;5000503;28;26190;-64
2022/09/03 04:46:32;;;;;;;;;;;16.90;99.10;;;;;;5000118;28;20463;-63
2022/09/03 04:49:01;;;;;;;;;;;16.80;99.20;;;;;;4998992;28;20731;-63
2022/09/03 04:51:30;;;;;;;;;;;16.80;99.20;;;;;;4998188;28;20203;-64
2022/09/03 04:53:59;;;;;;;;;;;16.90;99.30;;;;;;5000812;28;20211;-65
2022/09/03 04:56:27;;;;;;;;;;;16.90;99.30;;;;;;4997117;28;20336;-63
2022/09/03 04:58:55;;;;;;;;;;;16.90;99.40;;;;;;4997229;28;20214;-63
2022/09/03 05:01:24;;;;;;;;;;;16.90;99.40;;;;;;4997333;28;20837;-65
2022/09/03 05:03:54;;;;;;;;;;;16.90;99.40;;;;;;4995478;28;20682;-65
2022/09/03 05:06:23;;;;;;;;;;;16.90;99.50;;;;;;4997356;28;20191;-65
2022/09/03 05:08:53;;;;;;;;;;;16.90;99.40;;;;;;4997273;28;20668;-64
2022/09/03 05:11:21;;;;;;;;;;;16.90;99.60;;;;;;4994455;28;20942;-64
2022/09/03 05:13:49;;;;;;;;;;;16.90;99.70;;;;;;4997732;28;20660;-64
2022/09/03 05:16:18;;;;;;;;;;;16.90;99.70;;;;;;4997565;28;20234;-66
2022/09/03 05:18:46;;;;;;;;;;;16.90;99.60;;;;;;5001868;28;20209;-64
2022/09/03 05:21:14;;;;;;;;;;;16.90;99.90;;;;;;4996657;28;20270;-64
2022/09/03 05:23:43;;;;;;;;;;;17.00;99.90;;;;;;4995946;28;20207;-66
2022/09/03 05:26:12;;;;;;;;;;;17.10;99.90;;;;;;4999177;28;20206;-64
2022/09/03 05:28:41;;;;;;;;;;;17.10;99.90;;;;;;4993763;28;20256;-64
2022/09/03 05:31:09;;;;;;;;;;;17.20;99.90;;;;;;4998736;28;20199;-64
2022/09/03 05:33:38;;;;;;;;;;;17.20;99.80;;;;;;4998875;28;20203;-64
2022/09/03 05:36:06;;;;;;;;;;;17.30;99.90;;;;;;4997074;28;20210;-63
2022/09/03 05:38:34;;;;;;;;;;;17.30;99.90;;;;;;4994767;28;20215;-64
2022/09/03 05:41:03;;;;;;;;;;;17.20;99.90;;;;;;4994434;28;20211;-63
2022/09/03 05:43:32;;;;;;;;;;;17.20;99.90;;;;;;5000283;28;20257;-63
2022/09/03 05:46:01;;;;;;;;;;;17.20;99.90;;;;;;4995403;28;20209;-63
2022/09/03 05:48:30;;;;;;;;;;;17.30;99.90;;;;;;4997162;28;20265;-63
2022/09/03 05:51:01;;;;;;;;;;;17.20;99.90;;;;;;4999042;28;20253;-63
2022/09/03 05:53:28;;;;;;;;;;;17.20;99.90;;;;;;4994362;28;20261;-63
2022/09/03 05:55:57;;;;;;;;;;;17.20;99.90;;;;;;4996388;28;20203;-64
2022/09/03 05:58:25;;;;;;;;;;;17.20;99.90;;;;;;4998235;28;20246;-63
2022/09/03 06:00:54;;;;;;;;;;;17.30;99.90;;;;;;4995883;28;20218;-63
2022/09/03 06:03:22;;;;;;;;;;;17.30;99.90;;;;;;4995440;28;20680;-65
2022/09/03 06:05:51;;;;;;;;;;;17.30;99.90;;;;;;4997201;28;20191;-65
2022/09/03 06:08:19;;;;;;;;;;;17.30;99.90;;;;;;4996134;28;20222;-65
2022/09/03 06:10:47;;;;;;;;;;;17.30;99.90;;;;;;4995123;28;20206;-64
2022/09/03 06:13:14;;;;;;;;;;;17.40;99.90;;;;;;5000641;28;20210;-66
2022/09/03 06:15:42;;;;;;;;;;;17.40;99.90;;;;;;4998154;28;20619;-64
2022/09/03 06:18:11;;;;;;;;;;;17.40;99.90;;;;;;4996354;28;20213;-66
2022/09/03 06:20:39;;;;;;;;;;;17.40;99.90;;;;;;4995244;28;20203;-63
2022/09/03 06:23:07;;;;;;;;;;;17.40;99.90;;;;;;4999900;28;20215;-64
2022/09/03 06:25:34;;;;;;;;;;;17.40;99.90;;;;;;5001089;28;20253;-63
2022/09/03 06:28:03;;;;;;;;;;;17.50;99.90;;;;;;4999408;28;20211;-63
2022/09/03 06:30:30;;;;;;;;;;;17.40;99.90;;;;;;5002208;28;20203;-63
2022/09/03 06:32:58;;;;;;;;;;;17.30;99.90;;;;;;5000816;28;20725;-64
2022/09/03 06:35:27;;;;;;;;;;;17.20;99.90;;;;;;4999148;28;20198;-66
2022/09/03 06:37:59;;;;;;;;;;;17.30;99.90;;;;;;5002535;28;20211;-63
2022/09/03 06:40:27;;;;;;;;;;;17.30;99.90;;;;;;5000079;28;20210;-63
2022/09/03 06:42:56;;;;;;;;;;;17.40;99.90;;;;;;5003706;28;20285;-64
2022/09/03 06:45:24;;;;;;;;;;;17.50;99.90;;;;;;5002793;28;20651;-63
2022/09/03 06:47:53;;;;;;;;;;;17.50;99.90;;;;;;4999665;28;20199;-64
2022/09/03 06:50:21;;;;;;;;;;;17.50;99.90;;;;;;4997343;28;20230;-66
2022/09/03 06:52:53;;;;;;;;;;;17.40;99.90;;;;;;4998528;28;20855;-63
2022/09/03 06:55:22;;;;;;;;;;;17.40;99.90;;;;;;4998975;28;20187;-64
2022/09/03 06:57:50;;;;;;;;;;;17.50;99.90;;;;;;5001788;28;20261;-67
2022/09/03 07:00:20;;;;;;;;;;;17.60;99.90;;;;;;5000623;28;21393;-62
2022/09/03 07:02:48;;;;;;;;;;;17.70;99.90;;;;;;4996674;28;20215;-67
2022/09/03 07:05:16;;;;;;;;;;;17.70;99.90;;;;;;4999347;28;20203;-67
2022/09/03 07:07:45;;;;;;;;;;;17.80;99.90;;;;;;5000137;28;20210;-63
2022/09/03 07:10:15;;;;;;;;;;;17.90;99.90;;;;;;4996922;28;20312;-67
2022/09/03 07:12:42;;;;;;;;;;;18.10;99.90;;;;;;4999550;28;20298;-66
2022/09/03 07:15:11;;;;;;;;;;;18.30;99.90;;;;;;4999093;28;20222;-65
2022/09/03 07:17:39;;;;;;;;;;;18.40;99.90;;;;;;5001006;28;20726;-66
2022/09/03 07:20:07;;;;;;;;;;;18.50;99.90;;;;;;5000805;28;20198;-65
2022/09/03 07:22:35;;;;;;;;;;;18.60;99.90;;;;;;4999303;28;20261;-66
2022/09/03 07:25:04;;;;;;;;;;;18.50;99.90;;;;;;4999029;28;20706;-63
2022/09/03 07:27:34;;;;;;;;;;;18.40;99.90;;;;;;5001646;28;20620;-64
2022/09/03 07:30:02;;;;;;;;;;;18.30;99.90;;;;;;4998269;28;20734;-67
2022/09/03 07:32:30;;;;;;;;;;;18.30;99.90;;;;;;4999562;28;20676;-63
2022/09/03 07:34:58;;;;;;;;;;;18.30;99.90;;;;;;4996293;28;20211;-63
2022/09/03 07:37:25;;;;;;;;;;;18.40;99.90;;;;;;4996345;28;20250;-63
2022/09/03 07:39:53;;;;;;;;;;;18.50;99.90;;;;;;4996204;28;20950;-64
2022/09/03 07:42:21;;;;;;;;;;;18.50;99.90;;;;;;4998806;28;20671;-64
2022/09/03 07:44:50;;;;;;;;;;;18.50;99.90;;;;;;4996718;28;20207;-67
2022/09/03 07:50:31;;;;;;;;;;;18.30;99.90;;;;;;4927232;29;20208;-63
2022/09/03 07:52:59;;;;;;;;;;;18.30;99.90;;;;;;4935952;29;20204;-63
2022/09/03 07:55:27;;;;;;;;;;;18.20;99.90;;;;;;4934366;29;20204;-63
2022/09/03 07:57:55;;;;;;;;;;;18.10;99.90;;;;;;4936655;29;20236;-63
2022/09/03 08:00:24;;;;;;;;;;;18.00;99.90;;;;;;4924665;29;20642;-62
2022/09/03 08:02:55;;;;;;;;;;;17.90;99.90;;;;;;4917892;29;20663;-65
2022/09/03 08:05:23;;;;;;;;;;;17.90;99.90;;;;;;4928051;29;20219;-65
2022/09/03 08:07:50;;;;;;;;;;;17.80;99.90;;;;;;4934575;29;20274;-66
2022/09/03 08:10:18;;;;;;;;;;;17.70;99.90;;;;;;4931161;29;20208;-66
2022/09/03 08:12:46;;;;;;;;;;;17.70;99.90;;;;;;4928560;29;21795;-66
2022/09/03 08:15:14;;;;;;;;;;;17.60;99.90;;;;;;4929068;29;20221;-65
2022/09/03 08:17:45;;;;;;;;;;;17.60;99.90;;;;;;4928668;29;20229;-65
2022/09/03 08:20:12;;;;;;;;;;;17.60;99.90;;;;;;4929026;29;20695;-64
2022/09/03 08:22:40;;;;;;;;;;;17.70;99.90;;;;;;4935006;29;20240;-65
2022/09/03 08:25:08;;;;;;;;;;;17.80;99.90;;;;;;4927659;29;20675;-64
2022/09/03 08:27:40;;;;;;;;;;;17.80;99.90;;;;;;4928352;29;20212;-65
2022/09/03 08:30:10;;;;;;;;;;;17.90;99.90;;;;;;4928215;29;20322;-65
2022/09/03 08:32:38;;;;;;;;;;;18.00;99.90;;;;;;4928368;29;20256;-65
2022/09/03 08:35:08;;;;;;;;;;;18.20;99.90;;;;;;4935266;29;20133;-65
2022/09/03 08:37:36;;;;;;;;;;;18.40;99.90;;;;;;4934444;29;20213;-65
2022/09/03 08:40:05;;;;;;;;;;;18.60;99.90;;;;;;4935972;29;20226;-65
2022/09/03 08:42:43;;;;;;;;;;;18.90;99.90;;;;;;4934779;29;20209;-64
2022/09/03 08:45:15;;;;;;;;;;;19.00;99.90;;;;;;4916921;29;20205;-63
2022/09/03 08:47:45;;;;;;;;;;;19.20;99.90;;;;;;4933967;29;20248;-63
2022/09/03 08:50:18;;;;;;;;;;;19.40;99.90;;;;;;4924550;29;20624;-63
2022/09/03 08:52:47;;;;;;;;;;;19.30;99.90;;;;;;4928467;29;20207;-63
2022/09/03 08:55:17;;;;;;;;;;;19.20;99.90;;;;;;4934482;29;20208;-63
2022/09/03 08:57:46;;;;;;;;;;;19.10;99.90;;;;;;4936169;29;20198;-63
2022/09/03 09:00:14;;;;;;;;;;;19.00;99.90;;;;;;4934945;29;20080;-63
2022/09/03 09:02:48;;;;;;;;;;;18.90;99.90;;;;;;4935670;29;20193;-63
2022/09/03 09:05:18;;;;;;;;;;;18.80;99.90;;;;;;4933427;29;20233;-63
2022/09/03 09:07:50;;;;;;;;;;;18.90;99.90;;;;;;4935413;29;20203;-63
2022/09/03 09:10:20;;;;;;;;;;;18.80;99.90;;;;;;4933041;29;20205;-63
2022/09/03 09:12:56;;;;;;;;;;;18.80;99.90;;;;;;4935592;29;20612;-63
2022/09/03 09:15:28;;;;;;;;;;;18.70;99.90;;;;;;4934983;29;20610;-63
2022/09/03 09:18:03;;;;;;;;;;;18.70;99.90;;;;;;4933899;29;20195;-63
2022/09/03 09:20:41;;;;;;;;;;;18.80;99.90;;;;;;4934605;29;20209;-63
2022/09/03 09:23:12;;;;;;;;;;;18.80;99.90;;;;;;4931745;29;20256;-63
2022/09/03 09:25:44;;;;;;;;;;;18.70;99.90;;;;;;4923283;29;20327;-63
2022/09/03 09:28:15;;;;;;;;;;;18.80;99.90;;;;;;4933386;29;20581;-63
2022/09/03 09:30:46;;;;;;;;;;;18.80;99.90;;;;;;4935124;29;20209;-63
2022/09/03 09:33:14;;;;;;;;;;;18.90;99.90;;;;;;4933163;29;20208;-65
2022/09/03 09:35:44;;;;;;;;;;;18.90;99.90;;;;;;4934477;29;20260;-65
2022/09/03 09:38:12;;;;;;;;;;;18.90;99.90;;;;;;4934765;29;20251;-65
2022/09/03 09:40:44;;;;;;;;;;;18.90;99.90;;;;;;4934237;29;20244;-65
2022/09/03 09:43:14;;;;;;;;;;;18.80;99.90;;;;;;4935042;29;20554;-65
2022/09/03 09:45:43;;;;;;;;;;;18.90;99.90;;;;;;4933556;29;20253;-65
2022/09/03 09:48:19;;;;;;;;;;;18.90;99.90;;;;;;4933997;29;20241;-65
2022/09/03 09:50:49;;;;;;;;;;;18.90;99.90;;;;;;4933053;29;20071;-65
2022/09/03 09:53:20;;;;;;;;;;;19.10;99.90;;;;;;4934845;29;20083;-63
2022/09/03 09:55:49;;;;;;;;;;;19.40;99.90;;;;;;4933668;29;20198;-63
2022/09/03 09:58:19;;;;;;;;;;;19.50;99.90;;;;;;4932875;29;20189;-63
2022/09/03 10:00:57;;;;;;;;;;;19.60;99.90;;;;;;4933753;29;20197;-63
2022/09/03 10:03:28;;;;;;;;;;;19.60;99.90;;;;;;4933235;29;20208;-63
2022/09/03 10:06:52;;;;;;;;;;;19.70;99.90;;;;;;4933610;29;20676;-63
2022/09/03 10:08:49;;;;;;;;;;;19.80;99.90;;;;;;4937629;29;20215;-63
2022/09/03 10:11:18;;;;;;;;;;;19.80;99.90;;;;;;4933852;29;20741;-63
2022/09/03 10:13:47;;;;;;;;;;;20.20;99.90;;;;;;4934806;29;20209;-63
2022/09/03 10:16:21;;;;;;;;;;;20.30;99.90;;;;;;4932303;29;20595;-63
2022/09/03 10:18:53;;;;;;;;;;;20.30;99.90;;;;;;4933637;29;20654;-63
2022/09/03 10:21:28;;;;;;;;;;;20.20;99.90;;;;;;4934486;29;20205;-63
2022/09/03 10:23:58;;;;;;;;;;;20.20;99.90;;;;;;4932511;29;20244;-63
2022/09/03 10:26:34;;;;;;;;;;;20.30;99.90;;;;;;4934644;29;20201;-63
2022/09/03 10:29:04;;;;;;;;;;;20.40;99.90;;;;;;4933559;29;20616;-63
2022/09/03 10:31:52;;;;;;;;;;;20.50;99.90;;;;;;4934274;29;20701;-63
2022/09/03 10:34:23;;;;;;;;;;;20.50;99.90;;;;;;4932963;29;20548;-64
2022/09/03 10:36:56;;;;;;;;;;;20.70;99.90;;;;;;4934336;29;20201;-63
2022/09/03 10:39:30;;;;;;;;;;;21.00;99.90;;;;;;4931836;29;20205;-64
2022/09/03 10:42:20;;;;;;;;;;;21.20;99.90;;;;;;4934454;29;20207;-63
2022/09/03 10:44:54;;;;;;;;;;;21.30;99.90;;;;;;4933592;29;20208;-63
2022/09/03 10:47:31;;;;;;;;;;;21.70;99.90;;;;;;4933990;29;20196;-63
2022/09/03 10:50:02;;;;;;;;;;;22.10;99.90;;;;;;4933403;29;20227;-63
2022/09/03 10:52:38;;;;;;;;;;;22.70;99.90;;;;;;4934676;29;20232;-65
2022/09/03 10:55:13;;;;;;;;;;;23.00;99.90;;;;;;4933424;29;20583;-65
2022/09/03 10:57:45;;;;;;;;;;;23.10;99.90;;;;;;4922509;29;20201;-64
2022/09/03 11:00:15;;;;;;;;;;;22.90;99.90;;;;;;4925077;29;20205;-63
2022/09/03 11:02:54;;;;;;;;;;;23.00;99.90;;;;;;4932863;29;20208;-63
2022/09/03 11:05:28;;;;;;;;;;;22.80;99.90;;;;;;4932344;29;20216;-63
2022/09/03 11:08:01;;;;;;;;;;;22.60;99.90;;;;;;4934302;29;20335;-63
2022/09/03 11:10:29;;;;;;;;;;;22.40;99.90;;;;;;4935816;29;20741;-63
2022/09/03 11:13:01;;;;;;;;;;;22.40;99.90;;;;;;4937768;29;20277;-63
2022/09/03 11:15:32;;;;;;;;;;;22.50;99.90;;;;;;4936751;29;20211;-63
2022/09/03 11:18:02;;;;;;;;;;;22.70;99.90;;;;;;4937603;29;20292;-63
2022/09/03 11:20:31;;;;;;;;;;;22.70;99.90;;;;;;4935945;29;20583;-64
2022/09/03 11:23:02;;;;;;;;;;;22.70;99.90;;;;;;4936822;29;20201;-63
2022/09/03 11:25:32;;;;;;;;;;;22.90;99.90;;;;;;4937420;29;20209;-63
2022/09/03 11:28:10;;;;;;;;;;;23.50;99.90;;;;;;4936615;29;20197;-63
2022/09/03 11:30:48;;;;;;;;;;;24.20;99.90;;;;;;4931599;29;20197;-65
2022/09/03 11:33:18;;;;;;;;;;;24.60;99.90;;;;;;4937498;29;20208;-65
2022/09/03 11:35:45;;;;;;;;;;;24.60;99.90;;;;;;4936066;29;20206;-65
2022/09/03 11:38:23;;;;;;;;;;;24.50;99.90;;;;;;4935926;29;20697;-65
2022/09/03 11:40:57;;;;;;;;;;;24.40;99.90;;;;;;4937341;29;20209;-65
2022/09/03 11:43:27;;;;;;;;;;;24.40;99.90;;;;;;4936533;29;20977;-65
2022/09/03 11:46:01;;;;;;;;;;;24.30;99.90;;;;;;4936131;29;20264;-66
2022/09/03 11:48:36;;;;;;;;;;;24.00;99.90;;;;;;4937106;29;20205;-65
2022/09/03 11:51:04;;;;;;;;;;;23.80;99.90;;;;;;4936427;29;20201;-65
2022/09/03 11:53:37;;;;;;;;;;;23.80;99.90;;;;;;4937286;29;20712;-66
2022/09/03 11:56:17;;;;;;;;;;;23.80;99.90;;;;;;4935243;29;20332;-65
2022/09/03 11:58:46;;;;;;;;;;;24.10;99.90;;;;;;4917934;29;20202;-65
2022/09/03 12:01:16;;;;;;;;;;;24.10;99.90;;;;;;4932296;29;20193;-66
2022/09/03 12:03:46;;;;;;;;;;;24.20;99.90;;;;;;4930060;29;20201;-65
2022/09/03 12:06:26;;;;;;;;;;;24.90;99.90;;;;;;4933581;29;20633;-65
2022/09/03 12:09:04;;;;;;;;;;;25.50;99.90;;;;;;4936057;29;20201;-66
2022/09/03 12:11:37;;;;;;;;;;;25.80;99.90;;;;;;4932500;29;20197;-65
2022/09/03 12:14:11;;;;;;;;;;;25.30;99.90;;;;;;4936776;29;20209;-66
2022/09/03 12:16:55;;;;;;;;;;;24.90;99.90;;;;;;4935088;29;20189;-66
2022/09/03 12:19:27;;;;;;;;;;;24.60;99.90;;;;;;4935270;28;20197;-64
2022/09/03 12:21:55;;;;;;;;;;;24.30;99.90;;;;;;4934417;29;20666;-64
2022/09/03 12:24:27;;;;;;;;;;;24.10;99.90;;;;;;4928232;29;20215;-64
2022/09/03 12:26:57;;;;;;;;;;;24.10;99.90;;;;;;4927852;29;20201;-66
2022/09/03 12:29:26;;;;;;;;;;;24.10;99.90;;;;;;4926670;29;20201;-65
2022/09/03 12:32:06;;;;;;;;;;;24.30;99.90;;;;;;4927668;29;20240;-64
2022/09/03 12:34:34;;;;;;;;;;;24.40;99.90;;;;;;4930903;29;20758;-64
2022/09/03 12:37:02;;;;;;;;;;;24.10;99.90;;;;;;4930788;29;20201;-64
2022/09/03 12:39:31;;;;;;;;;;;24.00;99.90;;;;;;4927736;29;20275;-64
2022/09/03 12:42:21;;;;;;;;;;;23.90;99.90;;;;;;4927136;29;20231;-64
2022/09/03 12:44:49;;;;;;;;;;;24.30;99.90;;;;;;4927824;29;20201;-64
2022/09/03 12:47:17;;;;;;;;;;;24.60;99.90;;;;;;4927597;29;20541;-65
2022/09/03 12:50:06;;;;;;;;;;;25.10;99.90;;;;;;4945115;28;20280;-64
2022/09/03 12:52:36;;;;;;;;;;;25.00;99.90;;;;;;4934439;29;20202;-63
2022/09/03 12:55:08;;;;;;;;;;;25.00;99.90;;;;;;4926745;29;20829;-64
2022/09/03 12:57:38;;;;;;;;;;;24.90;99.90;;;;;;4930867;29;20197;-64
2022/09/03 13:00:07;;;;;;;;;;;24.70;99.90;;;;;;4930718;29;20211;-64
2022/09/03 13:02:39;;;;;;;;;;;24.60;99.90;;;;;;4929435;29;20205;-64
2022/09/03 13:05:11;;;;;;;;;;;24.40;99.90;;;;;;4928269;29;20201;-64
2022/09/03 13:07:39;;;;;;;;;;;24.30;99.90;;;;;;4934295;29;20197;-64
2022/09/03 13:10:23;;;;;;;;;;;24.00;99.90;;;;;;4931022;29;20603;-64
2022/09/03 13:12:51;;;;;;;;;;;24.00;99.90;;;;;;4930709;29;20545;-64
2022/09/03 13:15:22;;;;;;;;;;;24.10;99.90;;;;;;4929783;29;20223;-64
2022/09/03 13:17:57;;;;;;;;;;;24.60;99.90;;;;;;4927888;29;20208;-64
2022/09/03 13:20:30;;;;;;;;;;;24.80;99.90;;;;;;4927450;29;20225;-64
2022/09/03 13:23:07;;;;;;;;;;;25.10;99.90;;;;;;4929894;29;20212;-64
2022/09/03 13:25:41;;;;;;;;;;;25.10;99.90;;;;;;4927428;29;20714;-65
2022/09/03 13:28:16;;;;;;;;;;;25.40;99.90;;;;;;4919096;29;20212;-65
2022/09/03 13:30:48;;;;;;;;;;;26.00;99.90;;;;;;4923958;29;20201;-66
2022/09/03 13:33:20;;;;;;;;;;;26.10;99.90;;;;;;4922250;29;20205;-65
2022/09/03 13:35:49;;;;;;;;;;;25.80;99.90;;;;;;4920195;29;20197;-66
2022/09/03 13:38:21;;;;;;;;;;;25.90;99.90;;;;;;4917104;29;20205;-66
2022/09/03 13:40:54;;;;;;;;;;;26.10;99.90;;;;;;4916355;29;20268;-67
2022/09/03 13:43:27;;;;;;;;;;;26.10;99.90;;;;;;4916756;29;20702;-63
2022/09/03 13:45:57;;;;;;;;;;;26.10;99.90;;;;;;4919733;29;20227;-65
2022/09/03 13:51:16;;;;;;;;;;;25.70;99.90;;;;;;4921700;29;20271;-67
2022/09/03 13:53:49;;;;;;;;;;;25.40;99.90;;;;;;4921682;29;20256;-65
2022/09/03 13:56:24;;;;;;;;;;;25.30;99.90;;;;;;4919977;29;20276;-65
2022/09/03 13:58:56;;;;;;;;;;;25.30;99.90;;;;;;4919406;29;20259;-66
2022/09/03 14:01:26;;;;;;;;;;;25.10;99.90;;;;;;4931502;28;20766;-65
2022/09/03 14:03:56;;;;;;;;;;;25.10;99.90;;;;;;4918288;29;20320;-65
2022/09/03 14:06:30;;;;;;;;;;;25.20;99.90;;;;;;4917637;29;20216;-66
2022/09/03 14:09:06;;;;;;;;;;;25.10;99.90;;;;;;4917131;29;20205;-64
2022/09/03 14:11:40;;;;;;;;;;;25.00;99.90;;;;;;4916478;29;20463;-64
2022/09/03 14:14:13;;;;;;;;;;;24.80;99.90;;;;;;4918956;29;20209;-64
2022/09/03 14:16:44;;;;;;;;;;;24.60;99.90;;;;;;4918608;29;20205;-66
2022/09/03 14:19:15;;;;;;;;;;;24.30;99.90;;;;;;4921201;29;20331;-65
2022/09/03 14:21:45;;;;;;;;;;;24.20;99.90;;;;;;4920533;29;20236;-65
2022/09/03 14:24:14;;;;;;;;;;;24.20;99.90;;;;;;4918969;29;21507;-65
2022/09/03 14:26:51;;;;;;;;;;;24.40;99.90;;;;;;4915212;29;20219;-66
2022/09/03 14:29:20;;;;;;;;;;;25.00;99.90;;;;;;4917633;29;20205;-66
2022/09/03 14:31:52;;;;;;;;;;;25.90;99.90;;;;;;4921429;29;20201;-64
2022/09/03 14:34:26;;;;;;;;;;;26.70;99.90;;;;;;4919390;29;20749;-66
2022/09/03 14:37:03;;;;;;;;;;;27.00;99.90;;;;;;4921995;29;20694;-65
2022/09/03 14:39:33;;;;;;;;;;;26.80;99.90;;;;;;4914067;29;20243;-67
2022/09/03 14:42:18;;;;;;;;;;;26.70;99.90;;;;;;4918219;29;20205;-67